createdAt,value
2023-02-17T00:02:35.750Z,54.26
2023-02-17T00:05:41.283Z,54.18
2023-02-17T00:08:45.394Z,53.90
2023-02-17T00:11:50.629Z,53.92
2023-02-17T00:14:54.525Z,54.67
2023-02-17T00:17:58.304Z,54.95
2023-02-17T00:21:01.775Z,54.50
2023-02-17T00:24:05.843Z,53.87
2023-02-17T00:27:12.373Z,53.75
2023-02-17T00:30:17.487Z,53.51
2023-02-17T00:33:21.074Z,53.30
2023-02-17T00:36:26.520Z,53.37
2023-02-17T00:39:30.258Z,53.25
2023-02-17T00:42:35.508Z,53.64
2023-02-17T00:45:39.287Z,53.41
2023-02-17T00:48:43.442Z,53.91
2023-02-17T00:51:48.983Z,55.06
2023-02-17T00:54:52.798Z,55.04
2023-02-17T00:57:57.896Z,54.91
2023-02-17T01:01:02.041Z,56.42
2023-02-17T01:04:06.433Z,55.22
2023-02-17T01:07:10.250Z,54.80
2023-02-17T01:10:14.303Z,54.16
2023-02-17T01:13:21.371Z,54.36
2023-02-17T01:16:28.587Z,54.28
2023-02-17T01:19:35.657Z,54.28
2023-02-17T01:22:40.845Z,54.55
2023-02-17T01:25:46.650Z,54.39
2023-02-17T01:28:54.315Z,55.04
2023-02-17T01:31:58.247Z,55.84
2023-02-17T01:35:03.754Z,55.86
2023-02-17T01:38:11.852Z,56.67
2023-02-17T01:41:18.712Z,58.40
2023-02-17T01:44:25.520Z,57.41
2023-02-17T01:47:29.324Z,56.23
2023-02-17T01:50:36.898Z,55.32
2023-02-17T01:53:47.263Z,56.56
2023-02-17T01:56:52.836Z,54.96
2023-02-17T01:59:58.490Z,54.58
2023-02-17T02:03:03.610Z,54.74
2023-02-17T02:06:11.446Z,54.66
2023-02-17T02:09:21.112Z,54.62
2023-02-17T02:12:28.097Z,54.74
2023-02-17T02:15:39.258Z,55.19
2023-02-17T02:18:55.757Z,54.89
2023-02-17T02:22:19.845Z,54.70
2023-02-17T02:25:40.491Z,54.60
2023-02-17T02:29:01.210Z,54.51
2023-02-17T02:32:44.593Z,54.76
2023-02-17T02:35:58.226Z,55.45
2023-02-17T02:39:06.039Z,55.69
2023-02-17T02:42:13.273Z,55.73
2023-02-17T02:45:19.677Z,55.17
2023-02-17T02:48:23.339Z,57.13
2023-02-17T02:51:39.541Z,55.99
2023-02-17T02:54:54.383Z,55.68
2023-02-17T02:58:06.122Z,55.83
2023-02-17T03:01:17.650Z,55.95
2023-02-17T03:04:31.952Z,55.82
2023-02-17T03:07:42.940Z,58.89
2023-02-17T03:10:48.669Z,59.01
2023-02-17T03:13:52.395Z,59.80
2023-02-17T03:16:56.757Z,58.12
2023-02-17T03:20:05.496Z,58.13
2023-02-17T03:23:11.625Z,57.47
2023-02-17T03:26:15.615Z,58.22
2023-02-17T03:29:19.626Z,57.44
2023-02-17T03:32:23.542Z,57.00
2023-02-17T03:35:27.352Z,56.70
2023-02-17T03:38:32.480Z,57.30
2023-02-17T03:41:35.973Z,56.64
2023-02-17T03:44:39.516Z,56.96
2023-02-17T03:47:43.203Z,56.72
2023-02-17T03:50:46.885Z,57.04
2023-02-17T03:53:52.268Z,57.42
2023-02-17T03:56:56.047Z,57.28
2023-02-17T03:59:59.828Z,56.73
2023-02-17T04:03:03.605Z,56.62
2023-02-17T04:06:08.576Z,57.16
2023-02-17T04:09:13.864Z,58.15
2023-02-17T04:12:17.570Z,60.79
2023-02-17T04:15:21.423Z,60.39
2023-02-17T04:18:25.697Z,59.83
2023-02-17T04:21:29.323Z,61.00
2023-02-17T04:24:34.486Z,59.32
2023-02-17T04:27:38.098Z,59.32
2023-02-17T04:30:44.269Z,57.92
2023-02-17T04:33:47.891Z,58.83
2023-02-17T04:36:51.919Z,58.24
2023-02-17T04:39:57.015Z,58.59
2023-02-17T04:43:00.622Z,57.97
2023-02-17T04:46:04.836Z,59.43
2023-02-17T04:49:08.665Z,58.52
2023-02-17T04:52:12.363Z,58.37
2023-02-17T04:55:17.464Z,58.55
2023-02-17T04:58:22.047Z,59.50
2023-02-17T05:01:25.624Z,58.45
2023-02-17T05:04:29.685Z,58.40
2023-02-17T05:07:33.402Z,57.79
2023-02-17T05:10:38.657Z,58.84
2023-02-17T05:13:42.299Z,58.18
2023-02-17T05:16:46.643Z,58.29
2023-02-17T05:19:50.429Z,58.12
2023-02-17T05:22:54.141Z,57.82
2023-02-17T05:25:59.222Z,57.39
2023-02-17T05:29:02.980Z,58.03
2023-02-17T05:32:06.823Z,57.87
2023-02-17T05:35:10.723Z,58.06
2023-02-17T05:38:14.346Z,57.51
2023-02-17T05:41:20.271Z,59.10
2023-02-17T05:44:24.065Z,58.06
2023-02-17T05:47:27.822Z,57.54
2023-02-17T05:50:31.478Z,58.25
2023-02-17T05:53:39.376Z,57.80
2023-02-17T05:56:44.710Z,58.12
2023-02-17T05:59:48.376Z,57.68
2023-02-17T06:02:52.235Z,56.86
2023-02-17T06:05:56.067Z,56.39
2023-02-17T06:08:59.867Z,56.30
2023-02-17T06:12:05.491Z,56.75
2023-02-17T06:15:09.828Z,56.20
2023-02-17T06:18:13.567Z,56.17
2023-02-17T06:21:17.344Z,56.17
2023-02-17T06:24:20.999Z,55.46
2023-02-17T06:27:26.888Z,55.96
2023-02-17T06:30:31.101Z,58.07
2023-02-17T06:33:34.945Z,56.92
2023-02-17T06:36:38.644Z,56.90
2023-02-17T06:39:42.362Z,56.29
2023-02-17T06:42:47.637Z,55.83
2023-02-17T06:45:51.552Z,55.72
2023-02-17T06:48:55.408Z,54.92
2023-02-17T06:51:59.243Z,54.51
2023-02-17T06:55:03.101Z,55.50
2023-02-17T06:58:08.768Z,55.11
2023-02-17T07:01:19.271Z,53.93
2023-02-17T07:04:23.123Z,54.41
2023-02-17T07:07:26.916Z,54.15
2023-02-17T07:10:30.624Z,54.20
2023-02-17T07:13:36.445Z,53.45
2023-02-17T07:16:40.456Z,52.56
2023-02-17T07:19:44.299Z,53.04
2023-02-17T07:22:48.366Z,52.75
2023-02-17T07:25:52.078Z,52.68
2023-02-17T07:28:57.258Z,52.58
2023-02-17T07:32:01.171Z,52.70
2023-02-17T07:35:05.439Z,51.72
2023-02-17T07:38:09.567Z,50.68
2023-02-17T07:41:16.070Z,50.55
2023-02-17T07:44:21.291Z,50.22
2023-02-17T07:47:25.174Z,49.92
2023-02-17T07:50:29.061Z,49.91
2023-02-17T07:53:33.002Z,49.73
2023-02-17T07:56:36.996Z,49.04
2023-02-17T07:59:42.335Z,49.16
2023-02-17T08:02:46.281Z,49.43
2023-02-17T08:05:51.751Z,48.88
2023-02-17T08:09:14.030Z,48.94
2023-02-17T08:12:36.745Z,48.32
2023-02-17T08:15:43.242Z,48.04
2023-02-17T08:18:47.036Z,47.94
2023-02-17T08:21:51.179Z,47.38
2023-02-17T08:24:54.999Z,47.24
2023-02-17T08:27:58.786Z,45.70
2023-02-17T08:31:04.104Z,45.69
2023-02-17T08:34:09.318Z,46.55
2023-02-17T08:37:13.570Z,46.06
2023-02-17T08:40:18.309Z,44.85
2023-02-17T08:43:22.123Z,43.64
2023-02-17T08:46:28.499Z,43.09
2023-02-17T08:49:32.953Z,42.51
2023-02-17T08:52:37.036Z,42.67
2023-02-17T08:55:48.894Z,42.24
2023-02-17T08:58:53.656Z,42.96
2023-02-17T09:01:59.637Z,42.81
2023-02-17T09:05:03.527Z,42.37
2023-02-17T09:08:07.859Z,41.70
2023-02-17T09:11:12.956Z,40.94
2023-02-17T09:14:16.892Z,41.54
2023-02-17T09:17:22.215Z,41.29
2023-02-17T09:20:26.034Z,41.58
2023-02-17T09:23:29.950Z,41.23
2023-02-17T09:26:35.242Z,41.59
2023-02-17T09:29:40.230Z,40.48
2023-02-17T09:32:45.779Z,40.47
2023-02-17T09:35:49.658Z,39.21
2023-02-17T09:38:54.173Z,36.74
2023-02-17T09:41:58.192Z,33.11
2023-02-17T09:45:05.213Z,32.03
2023-02-17T09:48:13.533Z,31.43
2023-02-17T09:51:24.327Z,31.21
2023-02-17T09:54:34.045Z,30.55
2023-02-17T09:57:41.834Z,30.12
2023-02-17T10:00:49.217Z,29.32
2023-02-17T10:03:58.879Z,28.85
2023-02-17T10:07:08.142Z,28.96
2023-02-17T10:10:16.375Z,28.22
2023-02-17T10:13:23.612Z,28.12
2023-02-17T10:16:34.395Z,28.02
2023-02-17T10:19:49.275Z,28.10
2023-02-17T10:22:57.185Z,27.37
2023-02-17T10:26:12.470Z,27.69
2023-02-17T10:29:29.855Z,27.56
2023-02-17T10:32:41.823Z,26.84
2023-02-17T10:35:52.576Z,26.99
2023-02-17T10:39:05.132Z,26.66
2023-02-17T10:42:16.132Z,26.54
2023-02-17T10:45:30.931Z,26.64
2023-02-17T10:48:39.923Z,26.00
2023-02-17T10:51:45.222Z,25.96
2023-02-17T10:54:55.088Z,25.64
2023-02-17T10:58:05.885Z,25.49
2023-02-17T11:01:09.986Z,25.41
2023-02-17T11:04:14.601Z,25.45
2023-02-17T11:07:23.977Z,24.48
2023-02-17T11:10:32.820Z,24.74
2023-02-17T11:13:39.793Z,24.56
2023-02-17T11:16:45.970Z,23.86
2023-02-17T11:19:58.535Z,24.33
2023-02-17T11:23:08.312Z,24.54
2023-02-17T11:26:18.504Z,24.33
2023-02-17T11:29:24.522Z,23.53
2023-02-17T11:32:33.955Z,22.55
2023-02-17T11:35:49.876Z,22.08
2023-02-17T11:38:55.286Z,22.28
2023-02-17T11:41:59.063Z,22.17
2023-02-17T11:45:17.959Z,21.81
2023-02-17T11:48:43.128Z,21.13
2023-02-17T11:51:59.852Z,20.51
2023-02-17T11:55:20.883Z,20.78
2023-02-17T11:58:43.631Z,20.98
2023-02-17T12:02:15.139Z,21.59
2023-02-17T12:05:27.040Z,21.58
2023-02-17T12:08:39.785Z,21.42
2023-02-17T12:11:53.102Z,21.45
2023-02-17T12:15:10.123Z,21.77
2023-02-17T12:18:31.334Z,21.62
2023-02-17T12:21:46.685Z,21.49
2023-02-17T12:25:11.351Z,21.60
2023-02-17T12:28:40.458Z,21.13
2023-02-17T12:32:02.304Z,20.07
2023-02-17T12:35:17.734Z,19.37
2023-02-17T12:38:27.046Z,19.96
2023-02-17T12:41:36.361Z,20.50
2023-02-17T12:44:45.904Z,20.23
2023-02-17T12:47:55.744Z,20.41
2023-02-17T12:51:06.204Z,20.65
2023-02-17T12:54:19.236Z,21.20
2023-02-17T12:57:26.662Z,21.08
2023-02-17T13:00:37.835Z,20.53
2023-02-17T13:03:41.885Z,20.02
2023-02-17T13:06:52.126Z,20.25
2023-02-17T13:09:57.983Z,20.19
2023-02-17T13:13:04.959Z,20.16
2023-02-17T13:16:12.491Z,20.40
2023-02-17T13:19:17.153Z,20.53
2023-02-17T13:22:24.687Z,21.14
2023-02-17T13:25:31.590Z,21.13
2023-02-17T13:28:38.897Z,21.60
2023-02-17T13:31:51.290Z,21.63
2023-02-17T13:35:05.950Z,21.92
2023-02-17T13:38:12.061Z,21.99
2023-02-17T13:41:15.940Z,21.92
2023-02-17T13:44:29.153Z,22.11
2023-02-17T13:47:38.159Z,22.26
2023-02-17T13:50:45.906Z,22.32
2023-02-17T13:53:52.293Z,22.41
2023-02-17T13:56:56.472Z,22.10
2023-02-17T14:00:11.810Z,22.43
2023-02-17T14:03:22.529Z,22.60
2023-02-17T14:06:29.824Z,23.15
2023-02-17T14:09:35.468Z,23.88
2023-02-17T14:12:39.378Z,24.13
2023-02-17T14:15:53.186Z,23.79
2023-02-17T14:19:06.323Z,24.05
2023-02-17T14:22:25.162Z,24.45
2023-02-17T14:25:31.503Z,24.81
2023-02-17T14:28:35.292Z,24.80
2023-02-17T14:31:40.704Z,24.12
2023-02-17T14:34:46.191Z,24.46
2023-02-17T14:37:50.643Z,24.51
2023-02-17T14:40:56.139Z,24.59
2023-02-17T14:44:00.963Z,24.58
2023-02-17T14:47:05.007Z,24.59
2023-02-17T14:50:11.200Z,24.29
2023-02-17T14:53:20.788Z,24.58
2023-02-17T14:56:29.378Z,24.98
2023-02-17T14:59:33.363Z,25.33
2023-02-17T15:02:39.240Z,25.61
2023-02-17T15:05:44.625Z,25.94
2023-02-17T15:08:49.859Z,26.85
2023-02-17T15:11:53.659Z,26.59
2023-02-17T15:14:57.445Z,26.92
2023-02-17T15:18:01.219Z,27.00
2023-02-17T15:21:19.058Z,27.11
2023-02-17T15:24:30.002Z,27.41
2023-02-17T15:27:35.760Z,27.98
2023-02-17T15:30:39.550Z,28.08
2023-02-17T15:33:43.557Z,28.20
2023-02-17T15:36:49.246Z,28.03
2023-02-17T15:39:52.905Z,28.13
2023-02-17T15:43:01.243Z,28.08
2023-02-17T15:46:13.198Z,28.42
2023-02-17T15:49:16.984Z,28.23
2023-02-17T15:52:22.163Z,28.30
2023-02-17T15:55:26.250Z,27.96
2023-02-17T15:58:30.985Z,27.30
2023-02-17T16:01:36.227Z,27.24
2023-02-17T16:04:40.025Z,27.01
2023-02-17T16:07:45.336Z,27.02
2023-02-17T16:10:52.205Z,26.99
2023-02-17T16:13:56.388Z,27.39
2023-02-17T16:17:00.318Z,27.54
2023-02-17T16:20:04.236Z,27.63
2023-02-17T16:23:09.606Z,28.35
2023-02-17T16:26:27.177Z,29.04
2023-02-17T16:29:31.754Z,28.12
2023-02-17T16:32:35.713Z,28.14
2023-02-17T16:35:39.919Z,28.35
2023-02-17T16:38:45.740Z,28.47
2023-02-17T16:41:50.548Z,28.61
2023-02-17T16:44:54.343Z,28.56
2023-02-17T16:47:59.654Z,28.63
2023-02-17T16:51:03.609Z,28.91
2023-02-17T16:54:08.880Z,29.00
2023-02-17T16:57:18.329Z,29.01
2023-02-17T17:00:24.519Z,29.06
2023-02-17T17:03:28.552Z,29.29
2023-02-17T17:06:32.466Z,29.22
2023-02-17T17:09:37.809Z,29.17
2023-02-17T17:12:41.686Z,29.13
2023-02-17T17:15:47.206Z,29.22
2023-02-17T17:18:50.962Z,28.81
2023-02-17T17:21:54.803Z,28.67
2023-02-17T17:25:00.024Z,28.97
2023-02-17T17:28:03.968Z,28.78
2023-02-17T17:31:08.303Z,28.78
2023-02-17T17:34:12.366Z,28.67
2023-02-17T17:37:16.165Z,28.76
2023-02-17T17:40:24.333Z,28.85
2023-02-17T17:43:28.211Z,28.88
2023-02-17T17:46:35.925Z,28.85
2023-02-17T17:49:39.604Z,29.19
2023-02-17T17:52:43.427Z,29.35
2023-02-17T17:55:49.195Z,29.76
2023-02-17T17:58:54.029Z,30.24
2023-02-17T18:01:57.807Z,30.58
2023-02-17T18:05:01.574Z,30.54
2023-02-17T18:08:06.411Z,31.03
2023-02-17T18:11:12.089Z,31.04
2023-02-17T18:14:16.880Z,31.13
2023-02-17T18:17:21.289Z,31.17
2023-02-17T18:20:24.999Z,31.12
2023-02-17T18:23:28.891Z,31.35
2023-02-17T18:26:35.280Z,31.59
2023-02-17T18:29:39.110Z,31.50
2023-02-17T18:32:44.287Z,31.74
2023-02-17T18:35:48.204Z,31.95
2023-02-17T18:38:52.466Z,31.65
2023-02-17T18:41:58.072Z,31.90
2023-02-17T18:45:02.135Z,32.08
2023-02-17T18:48:06.094Z,32.08
2023-02-17T18:51:10.893Z,32.45
2023-02-17T18:54:15.000Z,32.18
2023-02-17T18:57:20.321Z,32.32
2023-02-17T19:00:25.244Z,32.24
2023-02-17T19:03:29.839Z,32.11
2023-02-17T19:06:35.397Z,32.83
2023-02-17T19:09:43.238Z,32.97
2023-02-17T19:12:48.488Z,32.95
2023-02-17T19:15:52.309Z,33.12
2023-02-17T19:18:57.077Z,33.50
2023-02-17T19:22:01.508Z,33.85
2023-02-17T19:25:05.897Z,33.88
2023-02-17T19:28:11.061Z,34.03
2023-02-17T19:31:17.029Z,34.00
2023-02-17T19:34:20.987Z,34.07
2023-02-17T19:37:24.837Z,33.85
2023-02-17T19:40:28.642Z,34.04
2023-02-17T19:43:34.054Z,34.08
2023-02-17T19:46:38.438Z,34.70
2023-02-17T19:49:42.472Z,34.31
2023-02-17T19:52:46.133Z,34.32
2023-02-17T19:55:49.933Z,34.81
2023-02-17T19:58:56.015Z,34.83
2023-02-17T20:02:00.010Z,35.01
2023-02-17T20:05:04.664Z,35.21
2023-02-17T20:08:08.444Z,35.29
2023-02-17T20:11:13.675Z,35.59
2023-02-17T20:14:18.852Z,35.37
2023-02-17T20:17:23.177Z,35.74
2023-02-17T20:20:26.954Z,35.78
2023-02-17T20:23:31.374Z,35.46
2023-02-17T20:26:39.442Z,35.81
2023-02-17T20:29:44.756Z,35.72
2023-02-17T20:32:48.499Z,35.84
2023-02-17T20:35:52.653Z,35.65
2023-02-17T20:38:56.364Z,35.51
2023-02-17T20:42:00.470Z,35.66
2023-02-17T20:45:06.112Z,35.78
2023-02-17T20:48:10.276Z,35.91
2023-02-17T20:51:14.046Z,36.09
2023-02-17T20:54:17.868Z,36.08
2023-02-17T20:57:21.889Z,36.27
2023-02-17T21:00:28.654Z,36.30
2023-02-17T21:03:32.990Z,36.41
2023-02-17T21:06:39.876Z,36.87
2023-02-17T21:09:43.694Z,37.11
2023-02-17T21:12:47.793Z,37.53
2023-02-17T21:15:53.138Z,37.75
2023-02-17T21:18:56.890Z,37.71
2023-02-17T21:22:00.740Z,37.57
2023-02-17T21:25:05.397Z,38.26
2023-02-17T21:28:09.257Z,38.82
2023-02-17T21:31:15.204Z,38.17
2023-02-17T21:34:19.035Z,38.34
2023-02-17T21:37:22.915Z,38.53
2023-02-17T21:40:26.722Z,38.82
2023-02-17T21:43:47.804Z,38.62
2023-02-17T21:46:54.074Z,38.48
2023-02-17T21:49:58.148Z,38.77
2023-02-17T21:53:02.054Z,39.02
2023-02-17T21:56:06.928Z,39.16
2023-02-17T21:59:11.225Z,39.87
2023-02-17T22:02:16.589Z,39.54
2023-02-17T22:05:20.499Z,40.11
2023-02-17T22:08:24.392Z,39.95
2023-02-17T22:11:30.579Z,39.73
2023-02-17T22:14:34.392Z,39.56
2023-02-17T22:17:39.741Z,39.51
2023-02-17T22:20:45.267Z,39.51
2023-02-17T22:23:49.510Z,39.71
2023-02-17T22:26:53.381Z,40.03
2023-02-17T22:29:57.382Z,39.82
2023-02-17T22:33:02.954Z,40.15
2023-02-17T22:36:09.653Z,39.68
2023-02-17T22:39:13.682Z,40.88
2023-02-17T22:42:17.437Z,40.28
2023-02-17T22:45:21.302Z,40.61
2023-02-17T22:48:26.647Z,40.84
2023-02-17T22:51:32.362Z,41.06
2023-02-17T22:54:36.435Z,40.77
2023-02-17T22:57:40.221Z,41.50
2023-02-17T23:00:43.955Z,41.53
2023-02-17T23:03:52.935Z,41.71
2023-02-17T23:06:57.729Z,41.88
2023-02-17T23:10:01.406Z,42.26
2023-02-17T23:13:05.141Z,41.72
2023-02-17T23:16:13.561Z,42.11
2023-02-17T23:19:21.763Z,41.59
2023-02-17T23:22:26.034Z,41.41
2023-02-17T23:25:29.941Z,42.13
2023-02-17T23:28:33.790Z,41.87
2023-02-17T23:31:39.199Z,42.10
2023-02-17T23:34:44.463Z,41.84
2023-02-17T23:37:50.700Z,41.79
2023-02-17T23:40:54.554Z,41.74
2023-02-17T23:43:58.395Z,42.01
2023-02-17T23:47:02.185Z,42.78
2023-02-17T23:50:08.780Z,42.47
2023-02-17T23:53:12.531Z,42.28
2023-02-17T23:56:18.247Z,42.00
2023-02-17T23:59:22.022Z,41.77
